首页
METAR-TAF:

METAR-TAF

机场 :

蘇庫爾, 巴基斯坦

纬度: 27-43-19N, 经度: 068-47-31E, 海拔: 60米

当前天气观测

该预报发布于59分钟前的21:00 UTC
静风
温度 29°C
湿度 58%
气压 1003 hPa
能見度: 4000

METAR: OPSK 242100Z 00000KT 4000 HZ NSC 29/20 Q1003 NOSIG

时间: 02:59 (21:59 UTC)

预报

该预报发布于6小时和29分钟前的15:30 UTC
预报有效从24日的 18点(UTC)到 25日的 18点(UTC)
风速8节,风向东北
能見度: 4000
短暂存在
从 25日的 01点(UTC)到 25日的 05点(UTC)
风速3节,风向多变
能見度: 3000
从 25日的 0600点(UTC)
风速5节,风向西北,有时为15节阵风
能見度: 5000

TAF: OPSK 241530Z 2418/2518 05008KT 4000 HZ NSC TEMPO 2501/2505 VRB03KT 3000 FU NSC FM250600 31005G15KT 5000 HZ NSC

超过4000个机场的气象观测和天气预报(METAR&TAF报告)。

可查询的气象台以黄色和红色小点在地图上表示。

将鼠标移到小点上方,可查看气象台名称。

然后点击查看天气观测和预报。

如需切换地图:点击带黑十字的绿色按钮放大地图;点击带横线的绿色按钮缩小地图;或者点击绿色箭头查看邻近地区的地图。


METAR-TAF: